createdAt,value
2019-01-28T00:06:20.163Z,60.10
2019-01-28T00:13:05.098Z,60.20
2019-01-28T00:19:49.761Z,60.50
2019-01-28T00:26:33.986Z,60.40
2019-01-28T00:33:18.406Z,60.60
2019-01-28T00:40:02.627Z,60.60
2019-01-28T00:46:46.849Z,60.50
2019-01-28T00:53:31.101Z,60.30
2019-01-28T01:00:18.282Z,60.00
2019-01-28T01:07:02.501Z,59.70
2019-01-28T01:13:46.788Z,60.20
2019-01-28T01:20:31.622Z,60.20
2019-01-28T01:27:16.308Z,60.20
2019-01-28T01:34:01.385Z,60.40
2019-01-28T01:40:45.629Z,59.70
2019-01-28T01:47:31.041Z,60.20
2019-01-28T01:54:15.814Z,60.60
2019-01-28T02:01:00.056Z,61.10
2019-01-28T02:07:45.191Z,61.20
2019-01-28T02:14:30.596Z,61.30
2019-01-28T02:21:15.201Z,61.80
2019-01-28T02:28:00.091Z,62.50
2019-01-28T02:34:44.754Z,63.00
2019-01-28T02:41:29.776Z,63.90
2019-01-28T02:48:16.773Z,64.70
2019-01-28T02:55:00.952Z,65.50
2019-01-28T03:01:45.136Z,66.30
2019-01-28T03:08:29.321Z,68.10
2019-01-28T03:15:13.632Z,68.60
2019-01-28T03:21:57.814Z,70.60
2019-01-28T03:28:42.038Z,70.00
2019-01-28T03:35:26.241Z,66.60
2019-01-28T03:42:10.466Z,63.10
2019-01-28T03:48:55.631Z,62.90
2019-01-28T03:55:39.890Z,63.30
2019-01-28T04:02:24.989Z,62.80
2019-01-28T04:09:36.110Z,62.00
2019-01-28T04:16:20.747Z,62.50
2019-01-28T04:45:32.122Z,60.20
2019-01-28T04:52:16.302Z,59.80
2019-01-28T04:59:00.489Z,59.30
2019-01-28T05:05:44.693Z,59.90
2019-01-28T05:12:28.895Z,60.40
2019-01-28T05:19:13.074Z,60.60
2019-01-28T05:25:57.267Z,60.20
2019-01-28T05:32:41.465Z,59.80
2019-01-28T05:39:25.702Z,59.60
2019-01-28T05:46:09.898Z,60.00
2019-01-28T05:52:54.122Z,60.10
2019-01-28T05:59:38.349Z,60.20
2019-01-28T06:06:22.552Z,60.70
2019-01-28T06:13:09.548Z,61.50
2019-01-28T06:19:53.725Z,61.30
2019-01-28T06:26:38.001Z,61.80
2019-01-28T06:33:22.205Z,62.20
2019-01-28T06:40:08.105Z,62.10
2019-01-28T06:46:52.370Z,62.10
2019-01-28T06:53:36.582Z,62.50
2019-01-28T07:00:23.662Z,63.00
2019-01-28T07:07:07.846Z,63.00
2019-01-28T07:13:52.150Z,62.90
2019-01-28T07:20:36.379Z,62.50
2019-01-28T07:27:20.584Z,62.10
2019-01-28T07:34:04.827Z,61.60
2019-01-28T07:40:49.207Z,61.40
2019-01-28T07:47:33.393Z,61.30
2019-01-28T07:54:17.610Z,60.90
2019-01-28T08:01:01.858Z,60.70
2019-01-28T08:07:46.173Z,59.60
2019-01-28T08:14:30.401Z,57.40
2019-01-28T08:21:14.690Z,55.20
2019-01-28T08:28:02.618Z,53.40
2019-01-28T08:34:46.849Z,54.00
2019-01-28T08:41:31.512Z,55.30
2019-01-28T08:48:25.092Z,55.00
2019-01-28T08:55:14.418Z,53.40
2019-01-28T09:01:55.871Z,50.40
2019-01-28T09:08:40.130Z,48.80
2019-01-28T09:15:26.427Z,49.00
2019-01-28T09:22:11.100Z,50.10
2019-01-28T09:28:55.826Z,50.30
2019-01-28T09:35:40.360Z,51.70
2019-01-28T09:42:24.613Z,50.90
2019-01-28T09:49:09.134Z,50.90
2019-01-28T09:55:53.352Z,51.30
2019-01-28T10:03:15.789Z,49.20
2019-01-28T10:10:24.561Z,48.90
2019-01-28T10:25:05.939Z,50.60
2019-01-28T10:31:50.162Z,51.30
2019-01-28T10:38:34.401Z,53.00
2019-01-28T10:45:18.730Z,53.00
2019-01-28T10:52:02.918Z,52.40
2019-01-28T10:58:47.897Z,52.70
2019-01-28T11:05:33.320Z,53.90
2019-01-28T11:12:26.164Z,54.00
2019-01-28T11:19:10.965Z,54.80
2019-01-28T11:25:56.901Z,53.60
2019-01-28T11:32:41.186Z,53.40
2019-01-28T11:39:25.358Z,54.20
2019-01-28T11:46:09.661Z,54.20
2019-01-28T11:52:53.802Z,52.90
2019-01-28T11:59:38.027Z,52.50
2019-01-28T12:06:22.261Z,52.70
2019-01-28T12:13:06.793Z,52.80
2019-01-28T12:19:50.993Z,54.10
2019-01-28T12:26:35.225Z,53.60
2019-01-28T12:40:52.680Z,56.30
2019-01-28T12:47:36.877Z,57.40
2019-01-28T12:54:21.133Z,58.60
2019-01-28T13:01:06.160Z,58.90
2019-01-28T13:07:50.421Z,58.50
2019-01-28T13:14:34.662Z,59.60
2019-01-28T13:21:18.865Z,59.50
2019-01-28T13:28:03.113Z,59.60
2019-01-28T13:34:47.300Z,59.30
2019-01-28T13:41:31.485Z,60.00
2019-01-28T13:48:15.750Z,60.20
2019-01-28T13:54:59.993Z,60.90
2019-01-28T14:01:44.298Z,61.10
2019-01-28T14:08:28.502Z,61.40
2019-01-28T14:15:16.373Z,61.70
2019-01-28T14:22:00.576Z,62.00
2019-01-28T14:28:45.414Z,62.20
2019-01-28T14:35:29.662Z,62.50
2019-01-28T14:42:13.850Z,62.40
2019-01-28T14:48:58.057Z,63.00
2019-01-28T14:55:47.396Z,62.70
2019-01-28T15:02:31.646Z,62.30
2019-01-28T15:09:15.854Z,62.40
2019-01-28T15:16:00.051Z,62.50
2019-01-28T15:22:45.457Z,62.60
2019-01-28T15:29:29.655Z,62.80
2019-01-28T15:36:13.889Z,63.00
2019-01-28T15:42:59.519Z,63.00
2019-01-28T15:49:44.263Z,63.40
2019-01-28T15:56:33.117Z,63.70
2019-01-28T16:03:17.384Z,63.70
2019-01-28T16:10:01.593Z,64.30
2019-01-28T16:16:45.812Z,64.20
2019-01-28T16:23:30.003Z,64.50
2019-01-28T16:30:17.254Z,64.70
2019-01-28T16:37:06.553Z,65.00
2019-01-28T16:43:54.477Z,65.60
2019-01-28T16:50:39.229Z,65.80
2019-01-28T16:57:23.738Z,65.80
2019-01-28T17:04:08.512Z,65.90
2019-01-28T17:10:52.993Z,65.50
2019-01-28T17:17:37.205Z,66.00
2019-01-28T17:31:40.425Z,65.00
2019-01-28T17:38:25.006Z,64.90
2019-01-28T17:45:14.099Z,65.50
2019-01-28T17:52:00.674Z,65.80
2019-01-28T17:58:45.150Z,65.70
2019-01-28T18:05:30.829Z,65.50
2019-01-28T18:12:15.642Z,65.80
2019-01-28T18:19:01.673Z,65.60
2019-01-28T18:25:51.261Z,65.50
2019-01-28T18:32:41.408Z,64.70
2019-01-28T18:39:25.658Z,64.80
2019-01-28T18:46:11.067Z,64.50
2019-01-28T18:52:55.341Z,64.10
2019-01-28T18:59:41.938Z,64.10
2019-01-28T19:06:32.302Z,64.20
2019-01-28T19:13:20.769Z,64.10
2019-01-28T19:20:30.229Z,64.20
2019-01-28T19:27:14.517Z,64.10
2019-01-28T19:33:59.817Z,63.50
2019-01-28T19:40:44.046Z,62.90
2019-01-28T19:47:28.344Z,62.40
2019-01-28T19:54:12.605Z,61.10
2019-01-28T20:00:56.891Z,61.10
2019-01-28T20:07:41.267Z,61.00
2019-01-28T20:14:26.158Z,60.80
2019-01-28T20:21:10.405Z,61.00
2019-01-28T20:27:54.667Z,61.60
2019-01-28T20:34:43.521Z,61.90
2019-01-28T20:41:23.074Z,61.60
2019-01-28T20:48:07.313Z,61.00
2019-01-28T20:54:51.949Z,61.10
2019-01-28T21:01:40.461Z,61.30
2019-01-28T21:08:25.238Z,61.60
2019-01-28T21:15:11.505Z,61.70
2019-01-28T21:21:56.566Z,62.00
2019-01-28T21:28:45.056Z,62.10
2019-01-28T21:35:34.599Z,61.80
2019-01-28T21:42:19.169Z,61.70
2019-01-28T21:49:03.421Z,62.10
2019-01-28T21:55:47.659Z,62.40
2019-01-28T22:02:31.869Z,62.10
2019-01-28T22:09:16.153Z,61.80
2019-01-28T22:16:00.991Z,62.30
2019-01-28T22:22:45.863Z,62.30
2019-01-28T22:29:30.082Z,62.80
2019-01-28T22:36:14.758Z,62.80
2019-01-28T22:42:58.986Z,63.00
2019-01-28T22:49:44.522Z,62.80
2019-01-28T22:56:28.717Z,62.70
2019-01-28T23:03:13.244Z,62.90
2019-01-28T23:09:57.461Z,63.50
2019-01-28T23:16:46.270Z,64.00
2019-01-28T23:23:30.468Z,65.10
2019-01-28T23:30:21.981Z,66.00
2019-01-28T23:37:08.058Z,66.30
2019-01-28T23:43:53.155Z,66.20
2019-01-28T23:50:52.060Z,66.00
2019-01-28T23:57:37.929Z,65.90
